Felts Field
KSFF : now visible

Airfield :











YOU CAN JOIN US ON...

 
LOGIN :

Register | Disclaimer

   EN    FR    IT 

 









Legend :    VFR   Marginal VFR   IFR   Intensive IFR   Very Intensive IFR
Visi :
Ceiling :
>= 8 km
>= 3000ft
5 to 8 km
1000 to 3000 ft
1500m to 5 km
500 to 1000 ft
800 to 1500m
200 to 500 ft
< 800m
< 200 ft
Symbols :   Thunderstorms  Fog  Heavy snow  Heavy precipitations  Wind > 20 kt






- Airport Elevation : 1953 ft


KSFF - Felts Field

CURRENT METAR :
  • 310653Z AUTO 16003KT 10SM OVC013 15/11 A2970 RMK AO2 SLP046 T01500111

EXPIRED METARs :
  • 310624Z AUTO 22013KT 10SM OVC011 15/12 A2971 RMK AO2 T01500117
  • 310553Z AUTO 19007G16KT 10SM OVC009 15/12 A2970 RMK AO2 PK WND 22035/0503 SLP044 60000 T01500122 10300 20150 51038
  • 310514Z AUTO 20016G28KT 10SM BKN012 BKN080 BKN110 17/13 A2966 RMK AO2 PK WND 22035/0503 PRESRR T01670133
  • 310453Z AUTO 22016G21KT 10SM FEW065 SCT085 BKN110 20/15 A2958 RMK AO2 RAB07E16 SLP003 P0000 T02000150

TAF KSFF
Valid from the 31 at 06:00 until the 01 at 06:00 UTC


310525Z 3106/0106 20015G25KT P6SM -SHRA BKN012 BKN020 OVC080
FM311800 21019G25KT P6SM SCT025 BKN100
FM312300 22015G25KT P6SM SCT100
FM010300 23005KT P6SM SKC
KZSE FIR / North America



MET'MAP, your aeronautical weather chart ! - Copyright ORBIFLY December 2007 - Disclaimer

ORBIFLY MET'MAP TEAM :

Programming & Development : Alexandra Zaïnal
Concept & original design : Baudouin d'Aumeries
Assistance for programming : Marc-Olivier Méhu
Technical & hardware support : Manuel Goepfert

Contact : metmap@orbifly.com




SOURCES & CREDITS :

   NOAA       Earth
Advisory